createdAt,value
2022-10-09T00:01:30.085Z,-62
2022-10-09T00:04:00.031Z,-63
2022-10-09T00:06:30.207Z,-63
2022-10-09T00:08:59.470Z,-62
2022-10-09T00:11:30.695Z,-61
2022-10-09T00:13:59.126Z,-62
2022-10-09T00:16:29.591Z,-62
2022-10-09T00:18:58.914Z,-62
2022-10-09T00:21:30.465Z,-61
2022-10-09T00:24:02.596Z,-62
2022-10-09T00:26:30.953Z,-61
2022-10-09T00:28:59.382Z,-61
2022-10-09T00:31:29.206Z,-62
2022-10-09T00:33:57.591Z,-62
2022-10-09T00:36:27.394Z,-62
2022-10-09T00:38:56.574Z,-61
2022-10-09T00:41:28.550Z,-61
2022-10-09T00:43:59.671Z,-62
2022-10-09T00:46:36.267Z,-60
2022-10-09T00:49:14.896Z,-61
2022-10-09T00:51:45.518Z,-63
2022-10-09T00:54:19.129Z,-61
2022-10-09T00:56:47.608Z,-63
2022-10-09T00:59:17.534Z,-62
2022-10-09T01:01:47.473Z,-65
2022-10-09T01:04:16.221Z,-61
2022-10-09T01:07:05.286Z,-61
2022-10-09T01:09:43.713Z,-61
2022-10-09T01:12:25.988Z,-61
2022-10-09T01:15:08.284Z,-62
2022-10-09T01:17:46.509Z,-62
2022-10-09T01:20:39.614Z,-62
2022-10-09T01:23:43.871Z,-61
2022-10-09T01:26:33.271Z,-62
2022-10-09T01:29:09.533Z,-62
2022-10-09T01:31:43.322Z,-63
2022-10-09T01:34:16.044Z,-61
2022-10-09T01:36:45.692Z,-64
2022-10-09T01:39:19.329Z,-61
2022-10-09T01:41:49.618Z,-62
2022-10-09T01:44:21.604Z,-61
2022-10-09T01:46:50.162Z,-63
2022-10-09T01:49:41.325Z,-62
2022-10-09T01:52:24.970Z,-63
2022-10-09T01:55:15.126Z,-61
2022-10-09T01:57:55.780Z,-63
2022-10-09T02:00:26.580Z,-64
2022-10-09T02:02:57.304Z,-62
2022-10-09T02:05:29.964Z,-62
2022-10-09T02:07:59.957Z,-64
2022-10-09T02:10:28.639Z,-63
2022-10-09T02:13:00.896Z,-62
2022-10-09T02:15:42.351Z,-62
2022-10-09T02:18:15.850Z,-63
2022-10-09T02:20:50.108Z,-62
2022-10-09T02:23:20.667Z,-62
2022-10-09T02:25:48.807Z,-63
2022-10-09T02:28:16.931Z,-62
2022-10-09T02:31:03.096Z,-62
2022-10-09T02:33:34.976Z,-63
2022-10-09T02:36:03.556Z,-61
2022-10-09T02:38:31.645Z,-61
2022-10-09T02:41:00.290Z,-62
2022-10-09T02:43:28.377Z,-63
2022-10-09T02:45:57.709Z,-62
2022-10-09T02:48:25.702Z,-62
2022-10-09T02:50:53.904Z,-62
2022-10-09T02:53:21.945Z,-63
2022-10-09T02:55:49.923Z,-65
2022-10-09T02:58:17.954Z,-62
2022-10-09T03:00:49.839Z,-62
2022-10-09T03:03:20.111Z,-63
2022-10-09T03:05:48.633Z,-61
2022-10-09T03:08:16.642Z,-61
2022-10-09T03:10:44.852Z,-61
2022-10-09T03:13:12.893Z,-62
2022-10-09T03:15:40.911Z,-61
2022-10-09T03:18:09.038Z,-61
2022-10-09T03:20:39.718Z,-61
2022-10-09T03:23:07.810Z,-61
2022-10-09T03:25:35.814Z,-61
2022-10-09T03:28:04.108Z,-62
2022-10-09T03:30:32.130Z,-62
2022-10-09T03:33:00.185Z,-62
2022-10-09T03:35:28.174Z,-62
2022-10-09T03:37:57.488Z,-62
2022-10-09T03:40:25.542Z,-61
2022-10-09T03:42:53.554Z,-62
2022-10-09T03:45:21.508Z,-61
2022-10-09T03:47:49.482Z,-62
2022-10-09T03:50:17.687Z,-63
2022-10-09T03:52:45.741Z,-62
2022-10-09T03:55:15.708Z,-62
2022-10-09T03:57:43.738Z,-62
2022-10-09T04:00:13.755Z,-61
2022-10-09T04:02:41.873Z,-62
2022-10-09T04:05:10.464Z,-62
2022-10-09T04:07:38.670Z,-62
2022-10-09T04:10:07.658Z,-62
2022-10-09T04:12:37.443Z,-62
2022-10-09T04:15:06.780Z,-62
2022-10-09T04:17:34.801Z,-62
2022-10-09T04:20:03.053Z,-62
2022-10-09T04:22:31.053Z,-61
2022-10-09T04:24:59.050Z,-60
2022-10-09T04:27:27.116Z,-61
2022-10-09T04:29:56.430Z,-61
2022-10-09T04:32:24.470Z,-62
2022-10-09T04:34:52.439Z,-61
2022-10-09T04:37:20.414Z,-61
2022-10-09T04:39:48.395Z,-62
2022-10-09T04:42:16.403Z,-62
2022-10-09T04:44:44.579Z,-62
2022-10-09T04:47:13.927Z,-61
2022-10-09T04:49:41.908Z,-61
2022-10-09T04:52:09.923Z,-62
2022-10-09T04:54:37.944Z,-63
2022-10-09T04:57:05.987Z,-62
2022-10-09T04:59:34.027Z,-62
2022-10-09T05:02:02.125Z,-62
2022-10-09T05:04:31.761Z,-62
2022-10-09T05:06:59.782Z,-62
2022-10-09T05:09:27.817Z,-62
2022-10-09T05:11:55.776Z,-62
2022-10-09T05:14:23.981Z,-62
2022-10-09T05:17:12.527Z,-61
2022-10-09T05:19:42.312Z,-61
2022-10-09T05:22:10.371Z,-62
2022-10-09T05:24:38.356Z,-61
2022-10-09T05:27:06.669Z,-62
2022-10-09T05:29:34.749Z,-62
2022-10-09T05:32:02.936Z,-62
2022-10-09T05:34:31.001Z,-61
2022-10-09T05:37:00.315Z,-63
2022-10-09T05:39:28.326Z,-62
2022-10-09T05:41:56.296Z,-61
2022-10-09T05:44:24.524Z,-61
2022-10-09T05:46:52.494Z,-61
2022-10-09T05:49:20.575Z,-63
2022-10-09T05:51:49.838Z,-62
2022-10-09T05:54:19.735Z,-61
2022-10-09T05:56:47.702Z,-61
2022-10-09T05:59:19.591Z,-62
2022-10-09T06:01:50.437Z,-61
2022-10-09T06:04:21.132Z,-62
2022-10-09T06:06:50.440Z,-62
2022-10-09T06:09:23.404Z,-63
2022-10-09T06:11:52.873Z,-63
2022-10-09T06:14:22.591Z,-62
2022-10-09T06:16:51.387Z,-64
2022-10-09T06:19:21.461Z,-63
2022-10-09T06:21:50.487Z,-62
2022-10-09T06:24:28.127Z,-62
2022-10-09T06:26:56.660Z,-62
2022-10-09T06:29:24.834Z,-64
2022-10-09T06:31:52.856Z,-63
2022-10-09T06:34:21.086Z,-61
2022-10-09T06:36:49.198Z,-63
2022-10-09T06:39:19.270Z,-62
2022-10-09T06:41:47.287Z,-63
2022-10-09T06:44:17.318Z,-62
2022-10-09T06:46:49.287Z,-62
2022-10-09T06:49:17.460Z,-62
2022-10-09T06:51:45.464Z,-61
2022-10-09T06:54:16.540Z,-62
2022-10-09T06:56:45.959Z,-63
2022-10-09T06:59:30.161Z,-63
2022-10-09T07:02:04.984Z,-64
2022-10-09T07:04:33.320Z,-62
2022-10-09T07:07:02.801Z,-62
2022-10-09T07:09:31.103Z,-63
2022-10-09T07:12:00.496Z,-63
2022-10-09T07:14:32.751Z,-62
2022-10-09T07:17:00.777Z,-63
2022-10-09T07:19:28.914Z,-63
2022-10-09T07:21:56.974Z,-62
2022-10-09T07:24:25.438Z,-63
2022-10-09T07:26:55.377Z,-63
2022-10-09T07:29:25.011Z,-62
2022-10-09T07:31:53.153Z,-62
2022-10-09T07:34:21.218Z,-62
2022-10-09T07:36:49.181Z,-62
2022-10-09T07:39:19.504Z,-63
2022-10-09T07:41:48.684Z,-61
2022-10-09T07:44:17.016Z,-62
2022-10-09T07:46:46.722Z,-63
2022-10-09T07:49:14.752Z,-62
2022-10-09T07:51:42.771Z,-62
2022-10-09T07:54:10.876Z,-62
2022-10-09T07:56:39.616Z,-62
2022-10-09T07:59:13.953Z,-61
2022-10-09T08:01:42.729Z,-64
2022-10-09T08:04:12.317Z,-63
2022-10-09T08:06:40.378Z,-61
2022-10-09T08:09:09.216Z,-62
2022-10-09T08:11:40.475Z,-62
2022-10-09T08:14:15.274Z,-63
2022-10-09T08:16:46.284Z,-62
2022-10-09T08:19:15.683Z,-63
2022-10-09T08:21:43.732Z,-62
2022-10-09T08:24:12.668Z,-63
2022-10-09T08:26:40.665Z,-61
2022-10-09T08:29:10.849Z,-63
2022-10-09T08:31:39.089Z,-62
2022-10-09T08:34:07.153Z,-62
2022-10-09T08:36:36.522Z,-64
2022-10-09T08:39:04.563Z,-62
2022-10-09T08:41:48.049Z,-61
2022-10-09T08:44:21.804Z,-63
2022-10-09T08:47:00.365Z,-61
2022-10-09T08:49:39.476Z,-61
2022-10-09T08:52:25.589Z,-62
2022-10-09T08:54:59.778Z,-62
2022-10-09T08:57:33.585Z,-62
2022-10-09T09:00:01.634Z,-62
2022-10-09T09:02:50.759Z,-62
2022-10-09T09:05:38.514Z,-62
2022-10-09T09:08:26.640Z,-62
2022-10-09T09:11:11.908Z,-62
2022-10-09T09:13:58.730Z,-62
2022-10-09T09:16:40.286Z,-62
2022-10-09T09:19:39.486Z,-62
2022-10-09T09:22:14.393Z,-61
2022-10-09T09:24:48.365Z,-62
2022-10-09T09:27:20.296Z,-62
2022-10-09T09:29:55.476Z,-62
2022-10-09T09:32:28.770Z,-62
2022-10-09T09:35:09.265Z,-63
2022-10-09T09:37:37.912Z,-62
2022-10-09T09:43:13.230Z,-62
2022-10-09T09:45:43.781Z,-62
2022-10-09T09:48:18.372Z,-62
2022-10-09T09:50:56.313Z,-61
2022-10-09T09:53:41.098Z,-62
2022-10-09T09:56:11.318Z,-63
2022-10-09T09:58:45.489Z,-62
2022-10-09T10:01:24.514Z,-62
2022-10-09T10:03:54.859Z,-63
2022-10-09T10:06:25.352Z,-62
2022-10-09T10:09:02.371Z,-63
2022-10-09T10:11:34.908Z,-62
2022-10-09T10:14:09.024Z,-63
2022-10-09T10:16:40.031Z,-63
2022-10-09T10:19:21.372Z,-63
2022-10-09T10:21:56.129Z,-63
2022-10-09T10:24:32.482Z,-63
2022-10-09T10:27:10.495Z,-65
2022-10-09T10:29:43.703Z,-63
2022-10-09T10:32:18.411Z,-63
2022-10-09T10:34:52.974Z,-64
2022-10-09T10:37:34.035Z,-64
2022-10-09T10:40:14.116Z,-63
2022-10-09T10:42:59.483Z,-64
2022-10-09T10:45:36.425Z,-64
2022-10-09T10:48:10.509Z,-65
2022-10-09T10:50:47.783Z,-63
2022-10-09T10:53:34.606Z,-63
2022-10-09T10:56:11.017Z,-63
2022-10-09T10:58:55.831Z,-64
2022-10-09T11:01:40.118Z,-63
2022-10-09T11:04:36.593Z,-64
2022-10-09T11:07:19.584Z,-63
2022-10-09T11:10:02.535Z,-64
2022-10-09T11:12:49.263Z,-66
2022-10-09T11:15:34.200Z,-64
2022-10-09T11:18:21.760Z,-62
2022-10-09T11:21:18.524Z,-64
2022-10-09T11:24:09.143Z,-64
2022-10-09T11:26:48.918Z,-63
2022-10-09T11:29:23.195Z,-63
2022-10-09T11:32:02.572Z,-63
2022-10-09T11:34:38.112Z,-64
2022-10-09T11:37:15.759Z,-62
2022-10-09T11:39:45.804Z,-64
2022-10-09T11:42:20.824Z,-64
2022-10-09T11:45:04.693Z,-64
2022-10-09T11:47:45.519Z,-63
2022-10-09T11:50:34.369Z,-62
2022-10-09T11:53:10.050Z,-62
2022-10-09T11:55:38.583Z,-63
2022-10-09T11:58:15.019Z,-64
2022-10-09T12:00:43.827Z,-62
2022-10-09T12:03:30.083Z,-63
2022-10-09T12:06:08.831Z,-63
2022-10-09T12:08:39.223Z,-64
2022-10-09T12:11:17.612Z,-64
2022-10-09T12:13:51.481Z,-62
2022-10-09T12:16:37.707Z,-63
2022-10-09T12:19:19.652Z,-63
2022-10-09T12:21:59.513Z,-63
2022-10-09T12:24:34.851Z,-64
2022-10-09T12:27:05.738Z,-62
2022-10-09T12:29:42.807Z,-62
2022-10-09T12:32:19.264Z,-63
2022-10-09T12:34:52.060Z,-63
2022-10-09T12:37:22.779Z,-62
2022-10-09T12:39:51.338Z,-62
2022-10-09T12:42:24.973Z,-64
2022-10-09T12:44:56.401Z,-62
2022-10-09T12:47:28.876Z,-63
2022-10-09T12:50:02.120Z,-64
2022-10-09T12:52:32.905Z,-63
2022-10-09T12:55:02.920Z,-65
2022-10-09T12:57:31.222Z,-63
2022-10-09T12:59:59.750Z,-63
2022-10-09T13:02:27.968Z,-63
2022-10-09T13:05:02.057Z,-62
2022-10-09T13:07:32.890Z,-63
2022-10-09T13:10:17.112Z,-62
2022-10-09T13:12:52.746Z,-62
2022-10-09T13:15:34.988Z,-63
2022-10-09T13:18:20.746Z,-62
2022-10-09T13:21:00.985Z,-64
2022-10-09T13:23:33.069Z,-63
2022-10-09T13:26:03.798Z,-63
2022-10-09T13:28:32.824Z,-63
2022-10-09T13:31:08.644Z,-63
2022-10-09T13:33:36.641Z,-62
2022-10-09T13:36:06.506Z,-62
2022-10-09T13:38:35.500Z,-63
2022-10-09T13:41:03.937Z,-63
2022-10-09T13:43:32.148Z,-62
2022-10-09T13:46:00.337Z,-62
2022-10-09T13:48:29.424Z,-63
2022-10-09T13:50:59.108Z,-63
2022-10-09T13:53:28.760Z,-62
2022-10-09T13:56:00.813Z,-62
2022-10-09T13:58:29.774Z,-62
2022-10-09T14:00:58.111Z,-61
2022-10-09T14:03:26.132Z,-62
2022-10-09T14:05:59.707Z,-63
2022-10-09T14:08:28.977Z,-62
2022-10-09T14:10:59.790Z,-62
2022-10-09T14:13:28.026Z,-62
2022-10-09T14:15:56.128Z,-62
2022-10-09T14:18:24.362Z,-63
2022-10-09T14:20:52.316Z,-63
2022-10-09T14:23:20.230Z,-64
2022-10-09T14:25:49.584Z,-62
2022-10-09T14:28:17.906Z,-63
2022-10-09T14:30:45.893Z,-62
2022-10-09T14:33:13.848Z,-63
2022-10-09T14:35:41.969Z,-61
2022-10-09T14:38:09.895Z,-61
2022-10-09T14:40:43.456Z,-62
2022-10-09T14:43:13.207Z,-63
2022-10-09T14:45:41.579Z,-63
2022-10-09T14:48:09.541Z,-61
2022-10-09T14:50:37.553Z,-62
2022-10-09T14:53:05.727Z,-63
2022-10-09T14:55:35.933Z,-62
2022-10-09T14:58:03.900Z,-64
2022-10-09T15:00:33.155Z,-63
2022-10-09T15:03:01.194Z,-63
2022-10-09T15:05:29.144Z,-62
2022-10-09T15:07:57.097Z,-63
2022-10-09T15:10:25.055Z,-62
2022-10-09T15:12:53.029Z,-62
2022-10-09T15:15:20.982Z,-61
2022-10-09T15:17:50.613Z,-62
2022-10-09T15:20:18.684Z,-62
2022-10-09T15:22:46.655Z,-62
2022-10-09T15:25:15.642Z,-63
2022-10-09T15:27:43.936Z,-63
2022-10-09T15:30:13.302Z,-63
2022-10-09T15:32:41.330Z,-62
2022-10-09T15:35:11.182Z,-63
2022-10-09T15:37:39.157Z,-62
2022-10-09T15:40:08.682Z,-62
2022-10-09T15:42:37.174Z,-63
2022-10-09T15:45:06.513Z,-63
2022-10-09T15:47:50.517Z,-63
2022-10-09T15:50:20.433Z,-62
2022-10-09T15:52:48.578Z,-63
2022-10-09T15:55:16.975Z,-63
2022-10-09T15:57:44.955Z,-62
2022-10-09T16:00:14.356Z,-63
2022-10-09T16:02:42.432Z,-63
2022-10-09T16:05:10.780Z,-63
2022-10-09T16:07:40.035Z,-62
2022-10-09T16:10:08.929Z,-62
2022-10-09T16:12:36.853Z,-62
2022-10-09T16:15:05.258Z,-62
2022-10-09T16:17:33.173Z,-62
2022-10-09T16:20:01.181Z,-63
2022-10-09T16:22:29.130Z,-62
2022-10-09T16:24:58.389Z,-61
2022-10-09T16:27:26.388Z,-62
2022-10-09T16:29:54.313Z,-63
2022-10-09T16:32:22.189Z,-62
2022-10-09T16:34:51.005Z,-63
2022-10-09T16:37:19.062Z,-63
2022-10-09T16:39:47.001Z,-63
2022-10-09T16:42:16.359Z,-62
2022-10-09T16:44:44.696Z,-64
2022-10-09T16:47:13.949Z,-63
2022-10-09T16:49:41.911Z,-63
2022-10-09T16:52:09.845Z,-63
2022-10-09T16:54:38.801Z,-62
2022-10-09T16:57:07.043Z,-63
2022-10-09T16:59:36.398Z,-63
2022-10-09T17:02:04.362Z,-63
2022-10-09T17:04:32.398Z,-62
2022-10-09T17:07:00.595Z,-63
2022-10-09T17:09:29.466Z,-62
2022-10-09T17:11:58.027Z,-63
2022-10-09T17:14:26.070Z,-63
2022-10-09T17:16:55.420Z,-62
2022-10-09T17:19:23.468Z,-63
2022-10-09T17:21:51.417Z,-63
2022-10-09T17:24:19.451Z,-64
2022-10-09T17:26:47.637Z,-63
2022-10-09T17:29:16.211Z,-62
2022-10-09T17:31:44.314Z,-63
2022-10-09T17:34:14.283Z,-62
2022-10-09T17:36:44.746Z,-64
2022-10-09T17:39:15.550Z,-63
2022-10-09T17:41:47.048Z,-64
2022-10-09T17:44:16.218Z,-65
2022-10-09T17:46:44.271Z,-63
2022-10-09T17:49:13.569Z,-63
2022-10-09T17:51:42.282Z,-62
2022-10-09T17:54:13.926Z,-63
2022-10-09T17:56:42.248Z,-62
2022-10-09T17:59:10.701Z,-64
2022-10-09T18:01:39.193Z,-63
2022-10-09T18:04:07.392Z,-63
2022-10-09T18:06:36.703Z,-63
2022-10-09T18:09:05.830Z,-63
2022-10-09T18:11:33.904Z,-63
2022-10-09T18:14:03.774Z,-62
2022-10-09T18:16:36.896Z,-63
2022-10-09T18:19:09.591Z,-64
2022-10-09T18:21:40.221Z,-65
2022-10-09T18:24:08.526Z,-63
2022-10-09T18:26:36.622Z,-63
2022-10-09T18:29:05.270Z,-63
2022-10-09T18:31:35.012Z,-63
2022-10-09T18:34:03.257Z,-64
2022-10-09T18:36:33.774Z,-64
2022-10-09T18:39:07.176Z,-63
2022-10-09T18:41:36.425Z,-62
2022-10-09T18:44:05.599Z,-63
2022-10-09T18:46:41.524Z,-65
2022-10-09T18:49:13.525Z,-63
2022-10-09T18:51:43.483Z,-65
2022-10-09T18:54:17.995Z,-64
2022-10-09T18:56:46.608Z,-63
2022-10-09T18:59:19.313Z,-65
2022-10-09T19:01:47.532Z,-64
2022-10-09T19:04:15.992Z,-64
2022-10-09T19:06:44.127Z,-64
2022-10-09T19:09:14.174Z,-65
2022-10-09T19:11:42.281Z,-64
2022-10-09T19:14:10.325Z,-65
2022-10-09T19:16:38.366Z,-64
2022-10-09T19:19:07.193Z,-66
2022-10-09T19:21:36.300Z,-62
2022-10-09T19:24:06.188Z,-64
2022-10-09T19:26:35.722Z,-62
2022-10-09T19:29:04.789Z,-63
2022-10-09T19:31:33.948Z,-65
2022-10-09T19:34:02.412Z,-64
2022-10-09T19:36:33.207Z,-64
2022-10-09T19:39:01.669Z,-65
2022-10-09T19:41:29.732Z,-64
2022-10-09T19:44:00.235Z,-66
2022-10-09T19:46:29.154Z,-66
2022-10-09T19:48:57.332Z,-64
2022-10-09T19:51:27.545Z,-66
2022-10-09T19:53:55.609Z,-65
2022-10-09T19:56:26.470Z,-65
2022-10-09T19:58:56.413Z,-64
2022-10-09T20:01:28.014Z,-62
2022-10-09T20:03:58.597Z,-64
2022-10-09T20:06:27.635Z,-65
2022-10-09T20:08:56.300Z,-66
2022-10-09T20:11:27.178Z,-66
2022-10-09T20:13:56.607Z,-64
2022-10-09T20:16:29.624Z,-66
2022-10-09T20:18:57.678Z,-66
2022-10-09T20:21:26.184Z,-65
2022-10-09T20:23:57.226Z,-69
2022-10-09T20:26:26.428Z,-71
2022-10-09T20:28:54.993Z,-67
2022-10-09T20:31:27.568Z,-65
2022-10-09T20:33:56.530Z,-66
2022-10-09T20:36:28.332Z,-65
2022-10-09T20:38:59.368Z,-66
2022-10-09T20:41:29.226Z,-65
2022-10-09T20:44:00.534Z,-65
2022-10-09T20:46:33.634Z,-63
2022-10-09T20:49:05.554Z,-64
2022-10-09T20:51:36.156Z,-63
2022-10-09T20:54:05.783Z,-63
2022-10-09T20:56:36.573Z,-64
2022-10-09T20:59:05.087Z,-63
2022-10-09T21:01:34.997Z,-64
2022-10-09T21:04:03.219Z,-64
2022-10-09T21:06:31.624Z,-65
2022-10-09T21:09:00.120Z,-62
2022-10-09T21:11:28.199Z,-66
2022-10-09T21:13:56.223Z,-64
2022-10-09T21:16:25.758Z,-66
2022-10-09T21:19:01.125Z,-64
2022-10-09T21:21:31.219Z,-64
2022-10-09T21:24:01.558Z,-64
2022-10-09T21:26:31.870Z,-65
2022-10-09T21:29:00.367Z,-65
2022-10-09T21:31:31.595Z,-65
2022-10-09T21:34:02.350Z,-63
2022-10-09T21:36:55.857Z,-65
2022-10-09T21:39:27.842Z,-64
2022-10-09T21:41:56.304Z,-64
2022-10-09T21:44:24.311Z,-67
2022-10-09T21:46:52.335Z,-65
2022-10-09T21:49:25.496Z,-65
2022-10-09T21:51:54.359Z,-62
2022-10-09T21:54:23.340Z,-64
2022-10-09T21:56:51.817Z,-62
2022-10-09T21:59:19.870Z,-65
2022-10-09T22:01:47.950Z,-67
2022-10-09T22:04:16.000Z,-66
2022-10-09T22:06:45.463Z,-66
2022-10-09T22:09:13.895Z,-65
2022-10-09T22:11:41.967Z,-67
2022-10-09T22:14:10.088Z,-66
2022-10-09T22:16:38.307Z,-66
2022-10-09T22:19:06.373Z,-65
2022-10-09T22:21:34.675Z,-65
2022-10-09T22:24:04.284Z,-64
2022-10-09T22:26:32.279Z,-65
2022-10-09T22:29:00.310Z,-66
2022-10-09T22:31:29.159Z,-66
2022-10-09T22:34:00.748Z,-67
2022-10-09T22:36:32.325Z,-64
2022-10-09T22:39:06.331Z,-65
2022-10-09T22:41:36.032Z,-65
2022-10-09T22:44:06.490Z,-66
2022-10-09T22:46:38.690Z,-67
2022-10-09T22:49:09.138Z,-64
2022-10-09T22:51:37.196Z,-68
2022-10-09T22:54:07.228Z,-64
2022-10-09T22:56:39.894Z,-64
2022-10-09T22:59:10.126Z,-65
2022-10-09T23:01:41.542Z,-63
2022-10-09T23:04:13.181Z,-65
2022-10-09T23:06:42.543Z,-64
2022-10-09T23:09:15.170Z,-64
2022-10-09T23:11:44.308Z,-64
2022-10-09T23:14:13.676Z,-64
2022-10-09T23:16:42.215Z,-64
2022-10-09T23:19:11.537Z,-65
2022-10-09T23:21:42.138Z,-64
2022-10-09T23:24:15.272Z,-63
2022-10-09T23:26:43.238Z,-64
2022-10-09T23:29:17.310Z,-65
2022-10-09T23:31:46.415Z,-66
2022-10-09T23:34:14.649Z,-65
2022-10-09T23:36:43.078Z,-65
2022-10-09T23:39:13.667Z,-64
2022-10-09T23:41:41.676Z,-65
2022-10-09T23:44:09.680Z,-64
2022-10-09T23:46:38.302Z,-64
2022-10-09T23:49:06.810Z,-65
2022-10-09T23:51:34.880Z,-63
2022-10-09T23:54:03.117Z,-64
2022-10-09T23:56:37.740Z,-64
2022-10-09T23:59:07.098Z,-65
